Terminal Aerodrome Forecast
Issued by NWS Detroit/Pontiac, MI

Home | Current Version | Previous Version | Text Only | Print | Product List | Glossary On
Versions: 1 2 3 4 5 6 7 8 9 10 11 12 13 14
000
FTUS43 KDTX 231100
TAFFNT
TAF
KFNT 231123Z 2312/2412 34011KT P6SM BKN016 OVC022
     FM231400 01014KT P6SM BKN024 OVC035
     FM231600 01013KT P6SM SCT035 OVC045
     FM232200 01011KT P6SM SCT060
     FM240200 36005KT P6SM SKC=

USA.gov is the U.S. government's official web portal to all federal, state and local government web resources and services.